Time;durP1;ratioP1;P1;durP2;ratioP2;P2;SDS_P1;SDS_P2;PMS_P1;PMS_P2;Temp;Humidity;BMP_temperature;BMP_pressure;BME280_temperature;BME280_humidity;BME280_pressure;Samples;Min_cycle;Max_cycle;Signal;HPM_P1;HPM_P2
2023/10/28 00:02:02;;;;;;;10.53;10.13;;;22.30;92.20;;;;;;5053161;28;20440;-70
2023/10/28 00:04:29;;;;;;;9.93;9.73;;;22.30;92.20;;;;;;5053242;28;20498;-70
2023/10/28 00:06:56;;;;;;;10.50;10.10;;;22.30;92.20;;;;;;5052866;28;20448;-71
2023/10/28 00:09:23;;;;;;;9.90;9.70;;;22.30;92.30;;;;;;5053179;28;20471;-71
2023/10/28 00:11:50;;;;;;;10.30;10.00;;;22.30;92.30;;;;;;5052981;28;20476;-70
2023/10/28 00:14:17;;;;;;;10.50;10.20;;;22.20;92.30;;;;;;5053068;28;20445;-71
2023/10/28 00:16:48;;;;;;;9.87;9.60;;;22.20;92.30;;;;;;5053002;28;20459;-70
2023/10/28 00:19:16;;;;;;;9.37;9.17;;;22.20;92.30;;;;;;5051812;28;20444;-69
2023/10/28 00:21:43;;;;;;;10.10;9.80;;;22.30;92.40;;;;;;5051147;28;20451;-71
2023/10/28 00:24:10;;;;;;;9.17;8.97;;;22.30;92.30;;;;;;5052510;28;20806;-70
2023/10/28 00:26:37;;;;;;;10.33;10.07;;;22.20;92.30;;;;;;5052173;28;20440;-70
2023/10/28 00:29:04;;;;;;;10.73;10.40;;;22.20;92.30;;;;;;5052736;28;20479;-71
2023/10/28 00:31:31;;;;;;;10.30;10.10;;;22.20;92.30;;;;;;5052790;28;21029;-71
2023/10/28 00:33:59;;;;;;;11.80;11.40;;;22.20;92.30;;;;;;5052532;28;20468;-70
2023/10/28 00:36:27;;;;;;;10.80;10.50;;;22.30;92.30;;;;;;5052658;28;20472;-70
2023/10/28 00:38:54;;;;;;;9.83;9.63;;;22.20;92.30;;;;;;5052687;28;20519;-70
2023/10/28 00:41:21;;;;;;;10.10;9.80;;;22.20;92.30;;;;;;5052710;28;20574;-70
2023/10/28 00:43:48;;;;;;;10.80;10.50;;;22.20;92.30;;;;;;5052667;28;20479;-70
2023/10/28 00:46:15;;;;;;;10.40;10.10;;;22.20;92.30;;;;;;5052640;28;20441;-71
2023/10/28 00:48:42;;;;;;;11.50;11.10;;;22.20;92.40;;;;;;5052345;28;20946;-70
2023/10/28 00:51:10;;;;;;;11.03;10.73;;;22.20;92.40;;;;;;5052217;28;20504;-70
2023/10/28 00:53:37;;;;;;;11.07;10.77;;;22.20;92.40;;;;;;5052513;28;20870;-71
2023/10/28 00:56:05;;;;;;;10.80;10.50;;;22.20;92.40;;;;;;5052579;28;20455;-70
2023/10/28 00:58:34;;;;;;;10.90;10.60;;;22.20;92.40;;;;;;5052187;28;20533;-70
2023/10/28 01:01:01;;;;;;;10.63;10.43;;;22.20;92.40;;;;;;5052138;28;20522;-70
2023/10/28 01:03:30;;;;;;;10.77;10.47;;;22.20;92.40;;;;;;5051997;28;20608;-71
2023/10/28 01:05:57;;;;;;;10.93;10.63;;;22.20;92.50;;;;;;5052393;28;20444;-71
2023/10/28 01:08:25;;;;;;;11.23;10.83;;;22.30;92.50;;;;;;5052267;28;20440;-70
2023/10/28 01:10:52;;;;;;;11.33;10.70;;;22.20;92.50;;;;;;5052119;28;20488;-69
2023/10/28 01:13:19;;;;;;;10.80;10.50;;;22.20;92.50;;;;;;5052288;28;20467;-70
2023/10/28 01:15:46;;;;;;;10.63;10.33;;;22.20;92.50;;;;;;5052248;28;20463;-71
2023/10/28 01:18:13;;;;;;;10.37;10.17;;;22.20;92.50;;;;;;5052156;28;20471;-70
2023/10/28 01:20:40;;;;;;;10.27;10.07;;;22.20;92.50;;;;;;5051741;28;20484;-70
2023/10/28 01:23:09;;;;;;;10.47;10.20;;;22.20;92.50;;;;;;5052036;28;20518;-71
2023/10/28 01:25:36;;;;;;;10.30;10.00;;;22.20;92.50;;;;;;5052170;28;20502;-71
2023/10/28 01:28:03;;;;;;;10.73;10.43;;;22.20;92.50;;;;;;5052308;28;20506;-71
2023/10/28 01:30:29;;;;;;;10.70;10.40;;;22.20;92.50;;;;;;5051921;28;20474;-70
2023/10/28 01:32:56;;;;;;;10.60;10.30;;;22.20;92.50;;;;;;5051922;28;20955;-71
2023/10/28 01:35:23;;;;;;;10.43;10.13;;;22.20;92.50;;;;;;5052046;28;20467;-70
2023/10/28 01:37:51;;;;;;;11.27;10.97;;;22.20;92.50;;;;;;5051839;28;20483;-71
2023/10/28 01:40:19;;;;;;;10.73;10.43;;;22.20;92.50;;;;;;5055055;28;20877;-71
2023/10/28 01:42:46;;;;;;;11.00;10.70;;;22.20;92.60;;;;;;5055734;28;20535;-71
2023/10/28 01:45:15;;;;;;;10.70;10.40;;;22.20;92.50;;;;;;5055515;28;20443;-69
2023/10/28 01:47:43;;;;;;;11.00;10.70;;;22.20;92.50;;;;;;5055723;28;20444;-71
2023/10/28 01:50:12;;;;;;;11.17;10.87;;;22.20;92.60;;;;;;5055272;28;20511;-70
2023/10/28 01:52:39;;;;;;;10.93;10.43;;;22.20;92.60;;;;;;5056188;28;20442;-71
2023/10/28 01:55:07;;;;;;;11.20;10.90;;;22.20;92.60;;;;;;5055942;28;20450;-71
2023/10/28 01:57:36;;;;;;;10.47;10.27;;;22.20;92.60;;;;;;5055735;28;20452;-71
2023/10/28 02:00:06;;;;;;;11.30;10.90;;;22.20;92.60;;;;;;5055414;28;20506;-71
2023/10/28 02:02:34;;;;;;;10.57;10.37;;;22.20;92.60;;;;;;5055413;28;20954;-71
2023/10/28 02:05:01;;;;;;;10.90;10.50;;;22.20;92.60;;;;;;5056134;28;20916;-70
2023/10/28 02:07:28;;;;;;;10.60;10.40;;;22.20;92.70;;;;;;5055513;28;20441;-71
2023/10/28 02:09:55;;;;;;;10.40;10.10;;;22.20;92.70;;;;;;5055287;28;20550;-71
2023/10/28 02:12:22;;;;;;;10.90;10.60;;;22.20;92.70;;;;;;5055761;28;20855;-70
2023/10/28 02:14:50;;;;;;;11.40;11.10;;;22.20;92.70;;;;;;5055676;28;20476;-70
2023/10/28 02:17:17;;;;;;;11.70;11.40;;;22.20;92.70;;;;;;5055317;28;20440;-70
2023/10/28 02:19:44;;;;;;;10.73;10.43;;;22.20;92.80;;;;;;5055246;28;20553;-70
2023/10/28 02:22:11;;;;;;;11.50;11.20;;;22.20;92.80;;;;;;5055389;28;20514;-71
2023/10/28 02:24:38;;;;;;;10.67;10.37;;;22.20;92.70;;;;;;5055555;28;20458;-71
2023/10/28 02:27:05;;;;;;;11.10;10.80;;;22.20;92.70;;;;;;5055338;28;20891;-70
2023/10/28 02:29:32;;;;;;;10.90;10.60;;;22.20;92.80;;;;;;5054964;28;20484;-70
2023/10/28 02:32:00;;;;;;;11.17;10.57;;;22.20;92.80;;;;;;5055004;28;20431;-71
2023/10/28 02:34:27;;;;;;;10.40;10.10;;;22.20;92.70;;;;;;5055108;28;20494;-70
2023/10/28 02:36:54;;;;;;;9.90;9.60;;;22.20;92.70;;;;;;5054654;28;20915;-70
2023/10/28 02:39:21;;;;;;;11.27;10.87;;;22.20;92.80;;;;;;5054433;28;20475;-70
2023/10/28 02:41:47;;;;;;;12.50;12.00;;;22.20;92.80;;;;;;5054508;28;20516;-71
2023/10/28 02:44:14;;;;;;;11.80;11.50;;;22.20;92.80;;;;;;5054516;28;20482;-71
2023/10/28 02:46:41;;;;;;;12.13;11.73;;;22.20;92.80;;;;;;5054607;28;20475;-71
2023/10/28 02:49:10;;;;;;;12.20;11.80;;;22.20;92.80;;;;;;5054001;28;20491;-70
2023/10/28 02:51:36;;;;;;;11.83;11.40;;;22.20;92.80;;;;;;5070315;22;20531;-70
2023/10/28 02:54:04;;;;;;;12.40;12.00;;;22.20;92.80;;;;;;5055994;28;20463;-71
2023/10/28 02:56:31;;;;;;;11.67;11.37;;;22.20;92.80;;;;;;5055996;28;20493;-72
2023/10/28 02:58:59;;;;;;;12.10;11.70;;;22.20;92.80;;;;;;5039524;28;20446;-70
2023/10/28 03:01:25;;;;;;;12.77;12.37;;;22.20;92.90;;;;;;5071179;28;20475;-71
2023/10/28 03:03:52;;;;;;;11.70;11.40;;;22.10;92.90;;;;;;5074879;28;20475;-71
2023/10/28 03:06:21;;;;;;;11.30;11.00;;;22.10;92.90;;;;;;5076061;28;20489;-71
2023/10/28 03:08:47;;;;;;;10.93;10.63;;;22.10;92.90;;;;;;5077288;28;20505;-71
2023/10/28 03:11:14;;;;;;;11.50;10.70;;;22.20;92.90;;;;;;5076740;28;20467;-71
2023/10/28 03:13:41;;;;;;;11.40;11.10;;;22.20;92.90;;;;;;5077490;28;20897;-71
2023/10/28 03:16:08;;;;;;;11.47;11.17;;;22.20;93.00;;;;;;5076500;28;20443;-71
2023/10/28 03:18:35;;;;;;;11.87;11.57;;;22.20;93.00;;;;;;5076050;28;20999;-71
2023/10/28 03:21:02;;;;;;;11.10;10.80;;;22.20;93.00;;;;;;5074619;28;20905;-71
2023/10/28 03:23:30;;;;;;;13.10;12.60;;;22.20;93.00;;;;;;5076019;28;20471;-71
2023/10/28 03:25:57;;;;;;;14.30;13.67;;;22.20;92.90;;;;;;5075680;28;20494;-71
2023/10/28 03:28:24;;;;;;;12.13;11.83;;;22.20;92.90;;;;;;5074806;28;20501;-71
2023/10/28 03:30:51;;;;;;;12.90;12.50;;;22.20;92.90;;;;;;5075652;28;20520;-71
2023/10/28 03:33:18;;;;;;;12.70;12.40;;;22.20;92.90;;;;;;5075362;28;20469;-71
2023/10/28 03:35:45;;;;;;;13.03;12.63;;;22.20;92.90;;;;;;5075544;28;20809;-72
2023/10/28 03:38:12;;;;;;;13.10;12.70;;;22.20;92.90;;;;;;5075328;28;20435;-71
2023/10/28 03:40:40;;;;;;;12.80;12.50;;;22.10;93.00;;;;;;5074648;28;20926;-71
2023/10/28 03:43:08;;;;;;;12.43;12.13;;;22.10;93.00;;;;;;5075108;28;20474;-70
2023/10/28 03:45:37;;;;;;;12.53;12.13;;;22.20;93.00;;;;;;5074067;28;20458;-71
2023/10/28 03:48:04;;;;;;;11.03;10.73;;;22.10;92.90;;;;;;5075078;28;20450;-71
2023/10/28 03:50:31;;;;;;;11.63;11.30;;;22.20;93.00;;;;;;5074155;28;20502;-71
2023/10/28 03:52:58;;;;;;;11.07;10.77;;;22.20;93.10;;;;;;5074715;28;20511;-71
2023/10/28 03:55:25;;;;;;;11.10;10.80;;;22.20;93.10;;;;;;5074826;28;20444;-71
2023/10/28 03:57:55;;;;;;;11.57;11.27;;;22.20;93.10;;;;;;5074746;28;20475;-71
2023/10/28 04:00:22;;;;;;;11.77;11.30;;;22.20;93.10;;;;;;5074085;28;20475;-70
2023/10/28 04:02:49;;;;;;;10.70;10.40;;;22.20;93.10;;;;;;5073591;28;20521;-71
2023/10/28 04:05:17;;;;;;;11.67;11.37;;;22.20;93.00;;;;;;5074782;28;20446;-71
2023/10/28 04:07:44;;;;;;;12.03;11.53;;;22.20;93.00;;;;;;5074435;28;20450;-71
2023/10/28 04:10:12;;;;;;;11.90;11.60;;;22.30;93.10;;;;;;5073636;28;20471;-71
2023/10/28 04:12:39;;;;;;;11.50;11.10;;;22.30;93.00;;;;;;5074782;28;20450;-72
2023/10/28 04:15:09;;;;;;;11.00;10.80;;;22.30;93.00;;;;;;5073837;28;20447;-71
2023/10/28 04:17:36;;;;;;;11.40;11.10;;;22.30;93.00;;;;;;5073634;28;20458;-71
2023/10/28 04:20:04;;;;;;;11.60;11.30;;;22.30;92.90;;;;;;5074293;28;20474;-71
2023/10/28 04:22:30;;;;;;;12.30;11.90;;;22.30;92.90;;;;;;5074303;28;20567;-71
2023/10/28 04:24:57;;;;;;;12.17;11.77;;;22.30;93.00;;;;;;5073475;28;20471;-71
2023/10/28 04:27:24;;;;;;;12.47;12.00;;;22.30;93.00;;;;;;5068969;28;20448;-70
2023/10/28 04:29:51;;;;;;;12.20;11.80;;;22.30;93.20;;;;;;5072284;28;20485;-71
2023/10/28 04:32:22;;;;;;;12.33;12.03;;;22.30;93.10;;;;;;5073788;28;20444;-70
2023/10/28 04:34:50;;;;;;;12.27;11.93;;;22.30;93.20;;;;;;5073759;28;20443;-71
2023/10/28 04:37:17;;;;;;;11.40;11.10;;;22.30;93.10;;;;;;5073253;28;20451;-71
2023/10/28 04:39:44;;;;;;;11.20;10.90;;;22.30;93.10;;;;;;5064692;28;20490;-71
2023/10/28 04:42:11;;;;;;;12.00;11.70;;;22.30;93.10;;;;;;5073534;28;20524;-71
2023/10/28 04:44:38;;;;;;;11.90;11.60;;;22.30;93.00;;;;;;5073386;28;20463;-71
2023/10/28 04:47:05;;;;;;;11.80;11.50;;;22.30;93.00;;;;;;5070243;28;20897;-70
2023/10/28 04:49:34;;;;;;;11.37;11.07;;;22.30;93.00;;;;;;5066800;28;20452;-71
2023/10/28 04:52:00;;;;;;;12.50;12.10;;;22.30;93.00;;;;;;5073685;28;21074;-70
2023/10/28 04:54:27;;;;;;;11.70;11.40;;;22.30;93.00;;;;;;5073447;28;20471;-70
2023/10/28 04:56:54;;;;;;;11.93;11.57;;;22.30;93.00;;;;;;5072342;28;20467;-71
2023/10/28 04:59:21;;;;;;;12.90;12.60;;;22.30;92.90;;;;;;5073125;28;20470;-70
2023/10/28 05:01:48;;;;;;;12.70;12.40;;;22.40;93.00;;;;;;5072862;28;20491;-71
2023/10/28 05:04:15;;;;;;;13.47;13.07;;;22.40;92.90;;;;;;5072267;28;20447;-70
2023/10/28 05:06:44;;;;;;;13.37;12.97;;;22.40;92.90;;;;;;5072634;28;20497;-70
2023/10/28 05:09:15;;;;;;;13.03;12.63;;;22.40;93.00;;;;;;5073649;28;20807;-70
2023/10/28 05:11:42;;;;;;;11.80;11.50;;;22.40;93.00;;;;;;5073058;28;20545;-71
2023/10/28 05:14:09;;;;;;;12.80;12.20;;;22.40;93.00;;;;;;5072782;28;20853;-71
2023/10/28 05:16:36;;;;;;;11.70;11.40;;;22.40;93.10;;;;;;5072844;28;20482;-71
2023/10/28 05:19:03;;;;;;;11.70;11.40;;;22.40;93.00;;;;;;5066260;28;20476;-70
2023/10/28 05:21:30;;;;;;;12.30;12.00;;;22.40;93.00;;;;;;5072831;28;20479;-71
2023/10/28 05:23:58;;;;;;;12.37;12.07;;;22.40;93.00;;;;;;5072731;28;20571;-71
2023/10/28 05:26:25;;;;;;;12.00;11.70;;;22.40;93.10;;;;;;5068537;28;20491;-70
2023/10/28 05:28:54;;;;;;;11.60;11.30;;;22.40;93.10;;;;;;5072697;28;20865;-71
2023/10/28 05:31:21;;;;;;;12.63;12.23;;;22.40;93.10;;;;;;5060857;28;20498;-70
2023/10/28 05:33:48;;;;;;;11.40;11.10;;;22.40;93.10;;;;;;5072049;28;20486;-71
2023/10/28 05:36:15;;;;;;;11.93;11.53;;;22.40;93.10;;;;;;5072890;28;20519;-71
2023/10/28 05:38:42;;;;;;;12.00;11.70;;;22.40;93.20;;;;;;5072775;28;20542;-71
2023/10/28 05:41:11;;;;;;;12.13;11.83;;;22.40;93.10;;;;;;5072676;28;20491;-71
2023/10/28 05:43:38;;;;;;;12.57;12.27;;;22.40;93.10;;;;;;5071633;28;20811;-71
2023/10/28 05:46:05;;;;;;;11.70;11.40;;;22.40;93.20;;;;;;5072093;28;20477;-71
2023/10/28 05:48:33;;;;;;;12.23;11.90;;;22.40;93.10;;;;;;5071709;28;20627;-71
2023/10/28 05:51:02;;;;;;;12.70;12.20;;;22.40;93.20;;;;;;5071631;28;20549;-70
2023/10/28 05:53:29;;;;;;;12.33;12.03;;;22.40;93.10;;;;;;5072436;28;20452;-70
2023/10/28 05:55:57;;;;;;;12.17;11.87;;;22.40;93.20;;;;;;5072991;28;20814;-70
2023/10/28 05:58:25;;;;;;;11.80;11.50;;;22.40;93.10;;;;;;5072582;28;20454;-70
2023/10/28 06:00:54;;;;;;;12.30;11.90;;;22.40;93.10;;;;;;5071378;28;20499;-70
2023/10/28 06:03:21;;;;;;;11.77;11.47;;;22.40;93.00;;;;;;5072086;28;20841;-70
2023/10/28 06:05:48;;;;;;;12.37;12.07;;;22.40;93.10;;;;;;5072021;28;20471;-71
2023/10/28 06:08:15;;;;;;;12.07;11.77;;;22.40;93.00;;;;;;5072374;28;20471;-72
2023/10/28 06:10:41;;;;;;;12.40;12.10;;;22.40;93.10;;;;;;5071646;28;20498;-71
2023/10/28 06:13:09;;;;;;;13.67;13.17;;;22.50;93.20;;;;;;5072048;28;20460;-70
2023/10/28 06:15:38;;;;;;;12.47;12.17;;;22.50;93.10;;;;;;5072259;28;20439;-71
2023/10/28 06:18:05;;;;;;;12.20;11.90;;;22.50;93.10;;;;;;5072204;28;20522;-70
2023/10/28 06:20:32;;;;;;;12.57;12.27;;;22.50;93.00;;;;;;5071252;28;20470;-70
2023/10/28 06:22:59;;;;;;;12.03;11.73;;;22.50;93.00;;;;;;5072087;28;20507;-70
2023/10/28 06:25:26;;;;;;;12.20;11.90;;;22.50;93.00;;;;;;5073664;28;20467;-70
2023/10/28 06:27:53;;;;;;;12.50;12.20;;;22.50;92.90;;;;;;5074653;28;20454;-70
2023/10/28 06:30:20;;;;;;;12.33;12.03;;;22.50;93.00;;;;;;5075503;28;20491;-70
2023/10/28 06:32:49;;;;;;;12.43;12.10;;;22.50;93.10;;;;;;5075491;28;20435;-70
2023/10/28 06:35:16;;;;;;;13.33;12.93;;;22.50;93.10;;;;;;5075701;28;20482;-70
2023/10/28 06:37:43;;;;;;;13.57;13.17;;;22.50;93.10;;;;;;5071624;28;20472;-70
2023/10/28 06:40:10;;;;;;;13.20;12.83;;;22.50;93.10;;;;;;5074878;28;20463;-71
2023/10/28 06:42:38;;;;;;;12.60;12.30;;;22.50;93.10;;;;;;5075709;28;20570;-70
2023/10/28 06:45:06;;;;;;;13.93;13.53;;;22.50;93.20;;;;;;5075198;28;20485;-70
2023/10/28 06:47:33;;;;;;;13.20;12.90;;;22.50;93.10;;;;;;5074222;28;20518;-71
2023/10/28 06:50:04;;;;;;;13.97;13.60;;;22.50;93.10;;;;;;5071885;28;20486;-71
2023/10/28 06:52:32;;;;;;;12.77;12.47;;;22.50;93.10;;;;;;5075256;28;20442;-71
2023/10/28 06:55:00;;;;;;;12.97;12.57;;;22.50;93.20;;;;;;5075102;28;20477;-70
2023/10/28 06:57:30;;;;;;;12.83;12.53;;;22.50;93.10;;;;;;5074457;28;20871;-71
2023/10/28 06:59:57;;;;;;;12.80;12.50;;;22.50;93.10;;;;;;5074883;28;20522;-71
2023/10/28 07:02:24;;;;;;;13.40;13.10;;;22.50;93.10;;;;;;5075147;28;20940;-71
2023/10/28 07:04:51;;;;;;;12.87;12.57;;;22.50;93.20;;;;;;5075040;28;20447;-71
2023/10/28 07:07:19;;;;;;;14.13;13.73;;;22.50;93.10;;;;;;5075277;28;20534;-70
2023/10/28 07:09:46;;;;;;;14.90;14.50;;;22.50;93.20;;;;;;5071561;28;20990;-71
2023/10/28 07:12:13;;;;;;;13.10;12.70;;;22.50;93.30;;;;;;5074792;28;20463;-70
2023/10/28 07:14:40;;;;;;;13.73;13.40;;;22.50;93.30;;;;;;5075167;28;20443;-71
2023/10/28 07:17:11;;;;;;;13.63;13.23;;;22.50;93.30;;;;;;5074717;28;20950;-71
2023/10/28 07:19:38;;;;;;;13.70;13.30;;;22.50;93.30;;;;;;5073720;28;20447;-70
2023/10/28 07:22:04;;;;;;;14.00;13.60;;;22.50;93.30;;;;;;5074464;28;20479;-70
2023/10/28 07:24:34;;;;;;;13.80;13.40;;;22.50;93.30;;;;;;5074878;28;20443;-70
2023/10/28 07:27:01;;;;;;;14.40;14.00;;;22.50;93.30;;;;;;5074094;28;20443;-70
2023/10/28 07:29:28;;;;;;;13.93;13.53;;;22.50;93.40;;;;;;5073902;28;20447;-70
2023/10/28 07:31:57;;;;;;;14.83;14.43;;;22.50;93.40;;;;;;5074623;28;20518;-70
2023/10/28 07:34:24;;;;;;;14.03;13.73;;;22.50;93.30;;;;;;5074487;28;20470;-70
2023/10/28 07:36:51;;;;;;;14.73;14.23;;;22.50;93.40;;;;;;5070374;28;20448;-71
2023/10/28 07:39:18;;;;;;;14.90;14.50;;;22.50;93.30;;;;;;5066047;28;20527;-70
2023/10/28 07:41:47;;;;;;;14.40;13.90;;;22.60;93.40;;;;;;5074084;28;20463;-70
2023/10/28 07:44:14;;;;;;;14.93;14.53;;;22.50;93.30;;;;;;5073884;28;20821;-70
2023/10/28 07:46:41;;;;;;;14.47;13.97;;;22.50;93.30;;;;;;5073176;28;20462;-70
2023/10/28 07:49:08;;;;;;;14.53;14.13;;;22.50;93.30;;;;;;5073273;28;20528;-70
2023/10/28 07:51:36;;;;;;;14.03;13.63;;;22.50;93.30;;;;;;5073626;28;20528;-70
2023/10/28 07:54:03;;;;;;;14.17;13.77;;;22.60;93.30;;;;;;5073561;28;20471;-71
2023/10/28 07:56:31;;;;;;;14.00;13.60;;;22.60;93.30;;;;;;5069849;28;20452;-70
2023/10/28 07:59:01;;;;;;;14.33;13.93;;;22.60;93.30;;;;;;5073015;28;20459;-72
2023/10/28 08:01:29;;;;;;;15.20;14.67;;;22.60;93.30;;;;;;5074178;28;20469;-70
2023/10/28 08:03:56;;;;;;;14.27;13.80;;;22.50;93.30;;;;;;5073544;28;20997;-71
2023/10/28 08:06:24;;;;;;;14.23;13.83;;;22.60;93.30;;;;;;5073297;28;20452;-71
2023/10/28 08:08:52;;;;;;;14.30;13.90;;;22.60;93.30;;;;;;5073532;28;20452;-72
2023/10/28 08:11:21;;;;;;;16.33;14.90;;;22.60;93.30;;;;;;5073480;28;20503;-71
2023/10/28 08:13:49;;;;;;;14.57;14.17;;;22.50;93.30;;;;;;5073060;28;20450;-71
2023/10/28 08:16:19;;;;;;;14.03;13.53;;;22.60;93.30;;;;;;5070997;28;20819;-72
2023/10/28 08:18:45;;;;;;;14.40;14.00;;;22.60;93.30;;;;;;5069944;28;20458;-71
2023/10/28 08:21:13;;;;;;;14.77;14.37;;;22.60;93.30;;;;;;5073327;28;20498;-71
2023/10/28 08:23:40;;;;;;;14.70;14.30;;;22.60;93.30;;;;;;5073070;28;20997;-70
2023/10/28 08:26:10;;;;;;;14.57;14.17;;;22.60;93.30;;;;;;5072129;28;20474;-70
2023/10/28 08:28:36;;;;;;;15.30;14.37;;;22.60;93.20;;;;;;5072241;28;20452;-70
2023/10/28 08:31:07;;;;;;;14.20;13.80;;;22.60;93.20;;;;;;5073266;28;20494;-70
2023/10/28 08:33:35;;;;;;;14.30;13.90;;;22.60;93.20;;;;;;5073396;28;20863;-70
2023/10/28 08:36:03;;;;;;;13.73;13.37;;;22.60;93.20;;;;;;5073093;28;20447;-70
2023/10/28 08:38:30;;;;;;;14.73;14.33;;;22.60;93.30;;;;;;5068369;28;20466;-70
2023/10/28 08:41:00;;;;;;;14.07;13.67;;;22.60;93.20;;;;;;5073044;28;20483;-70
2023/10/28 08:43:27;;;;;;;14.07;13.67;;;22.60;93.10;;;;;;5073444;28;20503;-71
2023/10/28 08:45:55;;;;;;;15.87;15.47;;;22.60;93.20;;;;;;5073742;28;20482;-70
2023/10/28 08:48:23;;;;;;;14.97;14.57;;;22.60;93.20;;;;;;5072256;28;20950;-70
2023/10/28 08:50:54;;;;;;;14.53;14.13;;;22.60;93.20;;;;;;5085428;22;20492;-70
2023/10/28 08:53:22;;;;;;;14.10;13.70;;;22.60;93.10;;;;;;5040192;28;20469;-70
2023/10/28 08:55:50;;;;;;;14.87;14.47;;;22.60;93.10;;;;;;5041694;28;20480;-70
2023/10/28 08:58:19;;;;;;;14.73;14.33;;;22.60;93.10;;;;;;5038416;28;20811;-70
2023/10/28 09:00:47;;;;;;;14.00;13.60;;;22.60;93.20;;;;;;5041655;28;21058;-70
2023/10/28 09:03:14;;;;;;;15.70;14.90;;;22.60;93.30;;;;;;5040036;28;20515;-70
2023/10/28 09:05:41;;;;;;;14.57;14.07;;;22.60;93.10;;;;;;5041394;28;20446;-70
2023/10/28 09:08:10;;;;;;;13.37;13.07;;;22.60;93.20;;;;;;5043578;28;20479;-70
2023/10/28 09:10:37;;;;;;;14.30;13.90;;;22.60;93.30;;;;;;5041083;28;20980;-70
2023/10/28 09:13:07;;;;;;;15.27;14.80;;;22.60;93.40;;;;;;5044300;28;20449;-70
2023/10/28 09:15:35;;;;;;;14.33;13.93;;;22.60;93.40;;;;;;5044367;28;20800;-70
2023/10/28 09:18:02;;;;;;;14.43;14.03;;;22.60;93.40;;;;;;5039838;28;20452;-70
2023/10/28 09:20:29;;;;;;;14.03;13.53;;;22.60;93.30;;;;;;5037036;28;20586;-70
2023/10/28 09:22:56;;;;;;;14.40;13.97;;;22.60;93.30;;;;;;5041839;28;20809;-70
2023/10/28 09:25:24;;;;;;;13.87;13.13;;;22.60;93.30;;;;;;5043659;28;20998;-70
2023/10/28 09:27:52;;;;;;;13.10;12.80;;;22.60;93.20;;;;;;5040076;28;20847;-70
2023/10/28 09:30:21;;;;;;;13.80;13.40;;;22.60;93.20;;;;;;5040888;28;20453;-70
2023/10/28 09:32:48;;;;;;;14.27;13.87;;;22.60;93.20;;;;;;5040691;28;20524;-69
2023/10/28 09:35:15;;;;;;;14.90;14.50;;;22.60;93.20;;;;;;5048184;28;20468;-71
2023/10/28 09:37:44;;;;;;;14.60;14.20;;;22.60;93.20;;;;;;5029512;28;20482;-70
2023/10/28 09:40:12;;;;;;;14.80;14.40;;;22.60;93.10;;;;;;5044518;28;20531;-70
2023/10/28 09:42:43;;;;;;;13.93;13.60;;;22.70;93.20;;;;;;5043991;28;20487;-70
2023/10/28 09:45:10;;;;;;;15.47;15.07;;;22.70;93.20;;;;;;5040384;28;20958;-71
2023/10/28 09:47:49;;;;;;;15.10;14.50;;;22.60;93.10;;;;;;5040050;28;20505;-70
2023/10/28 09:50:20;;;;;;;13.87;13.50;;;22.60;93.20;;;;;;5032139;28;20939;-70
2023/10/28 09:52:49;;;;;;;14.50;14.10;;;22.60;93.20;;;;;;5040174;28;20893;-70
2023/10/28 09:55:20;;;;;;;14.57;14.17;;;22.60;93.20;;;;;;5032506;28;20451;-71
2023/10/28 09:57:51;;;;;;;15.00;14.20;;;22.70;93.30;;;;;;5044510;28;20456;-70
2023/10/28 10:00:21;;;;;;;15.00;14.40;;;22.60;93.20;;;;;;5042139;28;20468;-70
2023/10/28 10:03:03;;;;;;;15.67;15.17;;;22.70;93.20;;;;;;5047438;28;20520;-70
2023/10/28 10:05:36;;;;;;;16.83;16.03;;;22.70;93.00;;;;;;5038509;28;20476;-70
2023/10/28 10:08:04;;;;;;;18.43;17.13;;;22.70;93.20;;;;;;5042574;28;20819;-69
2023/10/28 10:10:41;;;;;;;16.87;15.77;;;22.70;95.40;;;;;;5047037;28;20997;-67
2023/10/28 10:13:09;;;;;;;17.97;16.50;;;22.70;97.40;;;;;;5043080;28;20472;-70
2023/10/28 10:15:40;;;;;;;18.43;16.30;;;22.70;99.50;;;;;;5043642;28;20955;-71
2023/10/28 10:18:11;;;;;;;18.77;17.00;;;22.70;99.90;;;;;;5046421;28;20532;-72
2023/10/28 10:20:43;;;;;;;17.47;16.30;;;22.70;99.20;;;;;;5042851;28;20879;-72
2023/10/28 10:23:11;;;;;;;18.20;17.10;;;22.70;99.40;;;;;;5045662;28;20488;-72
2023/10/28 10:25:40;;;;;;;17.00;16.03;;;22.80;99.60;;;;;;5047226;28;20472;-71
2023/10/28 10:28:13;;;;;;;18.13;16.47;;;22.80;99.90;;;;;;5043558;28;20457;-71
2023/10/28 10:30:41;;;;;;;17.23;15.80;;;22.80;99.90;;;;;;5043557;28;20467;-71
2023/10/28 10:33:08;;;;;;;19.40;17.20;;;22.80;99.90;;;;;;5046154;28;20488;-70
2023/10/28 10:35:36;;;;;;;18.07;16.87;;;22.90;99.90;;;;;;5046616;28;20847;-70
2023/10/28 10:38:04;;;;;;;18.47;17.57;;;22.90;99.80;;;;;;5038862;28;20952;-71
2023/10/28 10:40:41;;;;;;;16.13;15.20;;;22.90;99.70;;;;;;5046384;28;20496;-71
2023/10/28 10:43:10;;;;;;;17.03;15.83;;;22.90;99.60;;;;;;5043964;28;20511;-71
2023/10/28 10:45:40;;;;;;;18.30;16.83;;;22.90;99.20;;;;;;5042750;28;20483;-72
2023/10/28 10:48:09;;;;;;;16.67;15.97;;;23.00;99.10;;;;;;5045010;28;20943;-68
2023/10/28 10:50:42;;;;;;;16.53;15.83;;;23.00;98.30;;;;;;5039964;28;20876;-71
2023/10/28 10:53:19;;;;;;;17.07;15.90;;;23.00;98.10;;;;;;5045717;28;20437;-69
2023/10/28 10:55:46;;;;;;;16.40;15.50;;;23.00;98.30;;;;;;5038829;28;20456;-68
2023/10/28 10:58:13;;;;;;;17.30;16.60;;;23.00;98.60;;;;;;5045216;28;20440;-69
2023/10/28 11:00:54;;;;;;;17.77;16.50;;;23.00;98.60;;;;;;5040866;28;20817;-69
2023/10/28 11:03:29;;;;;;;17.43;16.50;;;23.00;98.90;;;;;;5035266;28;20487;-70
2023/10/28 11:06:01;;;;;;;18.80;17.60;;;23.00;98.30;;;;;;5040049;28;20452;-70
2023/10/28 11:08:39;;;;;;;17.17;16.37;;;23.00;98.20;;;;;;5037506;28;20501;-70
2023/10/28 11:11:06;;;;;;;16.80;16.07;;;23.00;98.30;;;;;;5044801;28;20551;-72
2023/10/28 11:13:36;;;;;;;16.87;16.07;;;23.10;98.40;;;;;;5047251;28;20475;-70
2023/10/28 11:16:21;;;;;;;16.10;15.10;;;23.10;97.90;;;;;;5045154;28;20448;-72
2023/10/28 11:18:50;;;;;;;16.40;15.60;;;23.10;97.70;;;;;;5049363;28;20476;-71
2023/10/28 11:21:23;;;;;;;16.83;15.80;;;23.10;97.70;;;;;;5021363;28;20963;-71
2023/10/28 11:23:51;;;;;;;17.40;16.37;;;23.20;97.80;;;;;;5045438;28;20476;-71
2023/10/28 11:26:27;;;;;;;19.33;18.10;;;23.20;97.50;;;;;;5032660;28;21130;-69
2023/10/28 11:28:59;;;;;;;17.63;16.90;;;23.20;97.10;;;;;;5039258;28;20480;-68
2023/10/28 11:31:42;;;;;;;18.03;17.00;;;23.20;97.20;;;;;;5042187;28;20523;-72
2023/10/28 11:34:11;;;;;;;17.37;16.30;;;23.20;97.20;;;;;;5044472;28;20904;-69
2023/10/28 11:36:42;;;;;;;16.07;15.47;;;23.20;96.70;;;;;;5042813;28;20954;-68
2023/10/28 11:39:14;;;;;;;15.67;14.90;;;23.20;96.70;;;;;;5041138;28;20506;-68
2023/10/28 11:41:47;;;;;;;17.27;16.47;;;23.20;96.70;;;;;;5044625;28;20558;-68
2023/10/28 11:44:14;;;;;;;16.53;15.97;;;23.30;96.60;;;;;;5042246;28;20551;-68
2023/10/28 11:46:46;;;;;;;17.53;16.50;;;23.20;96.30;;;;;;5037809;28;20446;-70
2023/10/28 11:49:13;;;;;;;17.87;17.10;;;23.30;96.30;;;;;;5044380;28;20459;-71
2023/10/28 11:51:43;;;;;;;17.10;16.30;;;23.30;96.20;;;;;;5053869;28;20499;-67
2023/10/28 11:54:11;;;;;;;17.27;16.57;;;23.30;96.10;;;;;;5025186;28;20433;-72
2023/10/28 11:56:39;;;;;;;16.80;16.00;;;23.40;95.70;;;;;;5035874;28;20450;-68
2023/10/28 11:59:07;;;;;;;17.87;16.40;;;23.40;96.00;;;;;;5045187;28;20503;-67
2023/10/28 12:01:36;;;;;;;16.27;15.50;;;23.30;96.00;;;;;;5038707;28;20466;-67
2023/10/28 12:04:08;;;;;;;16.63;16.00;;;23.30;96.00;;;;;;5043754;28;20844;-67
2023/10/28 12:06:37;;;;;;;17.00;16.40;;;23.30;95.80;;;;;;5040961;28;20459;-66
2023/10/28 12:09:05;;;;;;;17.97;16.87;;;23.40;95.80;;;;;;5041259;28;20935;-67
2023/10/28 12:11:33;;;;;;;16.50;15.90;;;23.40;95.60;;;;;;5040987;28;20530;-69
2023/10/28 12:14:01;;;;;;;17.27;16.47;;;23.40;95.50;;;;;;5041997;28;20441;-70
2023/10/28 12:16:35;;;;;;;16.80;15.80;;;23.50;95.30;;;;;;5044747;28;20499;-71
2023/10/28 12:19:03;;;;;;;16.30;15.37;;;23.50;95.20;;;;;;5045972;28;20561;-70
2023/10/28 12:21:36;;;;;;;16.07;15.30;;;23.50;95.00;;;;;;5041785;28;20911;-71
2023/10/28 12:24:04;;;;;;;16.97;16.33;;;23.60;95.10;;;;;;5041291;28;20980;-71
2023/10/28 12:26:32;;;;;;;16.97;16.07;;;23.60;94.40;;;;;;5035787;28;20450;-65
2023/10/28 12:28:59;;;;;;;16.03;15.43;;;23.70;94.40;;;;;;5038427;28;20446;-70
2023/10/28 12:31:28;;;;;;;15.97;15.23;;;23.70;94.40;;;;;;5042978;28;20955;-70
2023/10/28 12:33:56;;;;;;;15.50;14.90;;;23.70;95.10;;;;;;5043821;28;20464;-67